This is the latest recevied weather packets stored in our database for station/object N7QNM-13. If no packets are shown the sender has not sent any weather packets the latest 10 day(s).
| Time | Temp. | Humidity | Pressure | Rain* | Wind** | Luminosity | Snow |
|---|---|---|---|---|---|---|---|
| 1777719677 | 12.78° C | 71% | 1012.4 hPa | 0 mm | - | 0 W/m² | - |
| 1777713660 | 11.67° C | 73% | 1012.6 hPa | 0 mm | - | 0 W/m² | - |
| 1777713059 | 11.67° C | 73% | 1012.7 hPa | 0 mm | - | 0 W/m² | - |
| 1777712479 | 12.22° C | 71% | 1012.7 hPa | 0 mm | - | 0 W/m² | - |
| 1777711859 | 12.22° C | 70% | 1012.8 hPa | 0 mm | - | 0 W/m² | - |
| 1777710659 | 12.78° C | 69% | 1012.8 hPa | 0 mm | - | 0 W/m² | - |
| 1777708859 | 12.78° C | 68% | 1012.8 hPa | 0 mm | - | 0 W/m² | - |
| 1777705260 | 13.33° C | 65% | 1012.5 hPa | 0 mm | - | 0 W/m² | - |
| 1777704080 | 13.89° C | 64% | 1012.5 hPa | 0 mm | - | 0 W/m² | - |
| 1777702281 | 14.44° C | 64% | 1012.4 hPa | 0 mm | - | 0 W/m² | - |
| 1777700461 | 15° C | 61% | 1012.4 hPa | 0 mm | - | 0 W/m² | - |
| 1777698662 | 15° C | 61% | 1012.4 hPa | 0 mm | - | 0 W/m² | - |
| 1777697461 | 15° C | 59% | 1012 hPa | 0 mm | - | 0 W/m² | - |
| 1777689663 | 23.89° C | 40% | 1011.4 hPa | 0 mm | - | 21 W/m² | - |
| 1777687864 | 24.44° C | 40% | 1011.3 hPa | 0 mm | - | 92 W/m² | - |
| 1777681865 | 25° C | 38% | 1011.9 hPa | 0 mm | - | 216 W/m² | - |
| 1777679165 | 25.56° C | 36% | 1012.2 hPa | 0 mm | - | 283 W/m² | - |
| 1777678565 | 25.56° C | 35% | 1012.3 hPa | 0 mm | - | 320 W/m² | - |
| 1777669267 | 25° C | 33% | 1014.1 hPa | 0 mm | - | 846 W/m² | - |
| 1777666868 | 23.89° C | 35% | 1014.7 hPa | 0 mm | - | 833 W/m² | - |
| 1777663868 | 22.22° C | 41% | 1015.3 hPa | 0 mm | - | 797 W/m² | - |
| 1777663268 | 22.22° C | 39% | 1015.4 hPa | 0 mm | - | 747 W/m² | - |
| 1777654270 | 19.44° C | 46% | 1016.4 hPa | 0 mm | - | 599 W/m² | - |
| 1777645271 | 10° C | 87% | 1016.6 hPa | 0 mm | - | 164 W/m² | - |
| 1777642272 | 5.56° C | 91% | 1016.3 hPa | 0 mm | - | 55 W/m² | - |
* Rain latest hour (hover to see other rain measurements)
** Current wind speed in m/s (hover to see current wind gust speed)